This is the latest recevied weather packets stored in our database for station/object WMKM. If no packets are shown the sender has not sent any weather packets the latest 10 day(s).
| Time | Temp. | Humidity | Pressure | Rain* | Wind** | Luminosity | Snow |
|---|---|---|---|---|---|---|---|
| 1777716657 | 30° C | 74% | 1006 hPa | - | - | - | - |
| 1777713038 | 31.67° C | 70% | 1005 hPa | - | - | - | - |
| 1777709438 | 31.67° C | 70% | 1006 hPa | - | - | - | - |
| 1777705840 | 30° C | 79% | 1007 hPa | - | - | - | - |
| 1777702255 | 31.67° C | 66% | 1008 hPa | - | - | - | - |
| 1777698642 | 31.67° C | 66% | 1009 hPa | - | - | - | - |
| 1777695038 | 30.56° C | 70% | 1010 hPa | - | - | - | - |
| 1777691438 | 30.56° C | 70% | 1011 hPa | - | - | - | - |
| 1777687855 | 28.89° C | 79% | 1010 hPa | - | - | - | - |
| 1777684241 | 27.78° C | 83% | 1010 hPa | - | - | - | - |
| 1777680638 | 25° C | 94% | 1009 hPa | - | - | - | - |
| 1777677037 | 23.89° C | 94% | 1008 hPa | - | - | - | - |
| 1777673439 | 23.89° C | 94% | 1008 hPa | - | - | - | - |
| 1777669855 | 23.89° C | 94% | 1008 hPa | - | - | - | - |
| 1777666237 | 23.89° C | 94% | 1008 hPa | - | - | - | - |
| 1777662637 | 23.89° C | 94% | 1009 hPa | - | - | - | - |
| 1777659034 | 23.89° C | 94% | 1010 hPa | - | - | - | - |
| 1777655450 | 23.89° C | 94% | 1010 hPa | - | - | - | - |
| 1777651839 | 23.89° C | 94% | 1010 hPa | - | - | - | - |
| 1777648233 | 23.89° C | 10% | - | - | - | - | - |
| 1777644637 | 25° C | 88% | 1010 hPa | - | - | - | - |
| 1777641052 | 25° C | 94% | 1009 hPa | - | - | - | - |
| 1777637437 | 25° C | 88% | 1009 hPa | - | - | - | - |
| 1777633836 | 25° C | 88% | 1008 hPa | - | - | - | - |
| 1777630244 | 25° C | 88% | 1007 hPa | - | - | - | - |
* Rain since midnight (hover to see other rain measurements)
** Current wind speed in m/s (hover to see current wind gust speed)